Terminal Aerodrome Forecast
Issued by NWS Omaha/Valley, NE

Home | Current Version | Previous Version | Text Only | Print | Product List | Glossary Off
Versions: 1 2 3 4 5 6 7 8 9 10 11 12 13 14 15 16 17 18 19 20 21 22 23 24 25 26 27 28

899
FTUS43 KOAX 211141
TAFOFK
TAF
KOFK 211141Z 2112/2212 VRB05KT P6SM OVC040
     FM211600 03010KT P6SM OVC008
     FM211900 02015G23KT P6SM VCSH OVC008
     FM212100 02017KT P6SM OVC015 PROB30 2121/2123 4SM -DZRA OVC003
     FM212300 02017G25KT 5SM -SN BR OVC010
     FM220000 02017G25KT 1/2SM SN OVC015
     FM220500 01022G30KT 1/2SM SN BLSN OVC008
     FM220600 01023G31KT 1/4SM +SN BLSN OVC008=

USA.gov is the U.S. government's official web portal to all federal, state and local government web resources and services.